Time;durP1;ratioP1;P1;durP2;ratioP2;P2;SDS_P1;SDS_P2;PMS_P1;PMS_P2;Temp;Humidity;BMP_temperature;BMP_pressure;BME280_temperature;BME280_humidity;BME280_pressure;Samples;Min_cycle;Max_cycle;Signal;HPM_P1;HPM_P2
2023/12/25 00:01:29;;;;;;;26.35;24.95;;;;;;;;;;5030371;28;20157;-51
2023/12/25 00:03:55;;;;;;;25.27;23.98;;;;;;;;;;5031589;28;20074;-49
2023/12/25 00:06:22;;;;;;;25.92;24.52;;;;;;;;;;5032052;28;20815;-50
2023/12/25 00:08:48;;;;;;;26.45;25.05;;;;;;;;;;5034009;28;20029;-48
2023/12/25 00:11:15;;;;;;;28.38;26.70;;;;;;;;;;5035683;28;20123;-53
2023/12/25 00:13:40;;;;;;;27.02;25.63;;;;;;;;;;5028292;28;20501;-49
2023/12/25 00:16:06;;;;;;;26.02;24.63;;;;;;;;;;5028527;28;20484;-48
2023/12/25 00:18:31;;;;;;;24.27;22.98;;;;;;;;;;5027885;28;20334;-49
2023/12/25 00:20:56;;;;;;;26.02;24.63;;;;;;;;;;5034646;28;20352;-49
2023/12/25 00:23:21;;;;;;;27.23;25.83;;;;;;;;;;5033445;28;20037;-48
2023/12/25 00:25:47;;;;;;;24.52;23.23;;;;;;;;;;5032008;28;20037;-49
2023/12/25 00:28:12;;;;;;;26.90;25.48;;;;;;;;;;5033154;28;20048;-48
2023/12/25 00:30:37;;;;;;;24.73;23.42;;;;;;;;;;5029491;28;20044;-48
2023/12/25 00:33:03;;;;;;;26.27;24.88;;;;;;;;;;5030233;28;20029;-47
2023/12/25 00:35:28;;;;;;;27.40;25.98;;;;;;;;;;5031277;28;20052;-48
2023/12/25 00:37:54;;;;;;;26.08;24.67;;;;;;;;;;5029094;28;20136;-46
2023/12/25 00:40:19;;;;;;;27.02;25.63;;;;;;;;;;5033201;28;20512;-50
2023/12/25 00:42:44;;;;;;;28.63;26.92;;;;;;;;;;5031276;28;20079;-51
2023/12/25 00:45:10;;;;;;;25.92;24.52;;;;;;;;;;5028860;28;20029;-49
2023/12/25 00:47:35;;;;;;;26.08;24.67;;;;;;;;;;5031573;28;20129;-48
2023/12/25 00:50:02;;;;;;;27.33;25.83;;;;;;;;;;5031365;28;20037;-49
2023/12/25 00:52:27;;;;;;;26.05;24.65;;;;;;;;;;5031373;28;20061;-46
2023/12/25 00:54:52;;;;;;;27.35;25.95;;;;;;;;;;5029068;28;20053;-48
2023/12/25 00:57:18;;;;;;;27.40;25.90;;;;;;;;;;5027399;28;20311;-47
2023/12/25 00:59:43;;;;;;;26.50;25.10;;;;;;;;;;5032033;28;20461;-50
2023/12/25 01:02:08;;;;;;;26.50;25.10;;;;;;;;;;5031803;28;20033;-49
2023/12/25 01:04:33;;;;;;;27.20;25.75;;;;;;;;;;5031121;28;20044;-49
2023/12/25 01:06:59;;;;;;;26.83;25.42;;;;;;;;;;5031255;28;20083;-48
2023/12/25 01:09:24;;;;;;;27.70;26.20;;;;;;;;;;5037926;28;20366;-48
2023/12/25 01:11:49;;;;;;;28.20;26.70;;;;;;;;;;5029305;28;20200;-51
2023/12/25 01:14:15;;;;;;;25.52;24.20;;;;;;;;;;5028683;28;20455;-48
2023/12/25 01:16:40;;;;;;;26.90;25.48;;;;;;;;;;5034365;28;20040;-49
2023/12/25 01:19:05;;;;;;;26.85;25.45;;;;;;;;;;5028481;28;20063;-50
2023/12/25 01:21:32;;;;;;;27.00;25.50;;;;;;;;;;5026545;28;20130;-48
2023/12/25 01:23:58;;;;;;;27.50;26.00;;;;;;;;;;5025261;28;20029;-48
2023/12/25 01:26:23;;;;;;;27.52;26.10;;;;;;;;;;5027095;28;20102;-50
2023/12/25 01:28:48;;;;;;;29.25;27.65;;;;;;;;;;5026129;28;20026;-49
2023/12/25 01:31:14;;;;;;;27.30;25.90;;;;;;;;;;5028318;28;20076;-46
2023/12/25 01:33:39;;;;;;;26.38;24.88;;;;;;;;;;5027617;28;20052;-48
2023/12/25 01:36:05;;;;;;;27.83;26.30;;;;;;;;;;4995755;28;1006940;-46
2023/12/25 01:38:30;;;;;;;26.30;24.77;;;;;;;;;;5028884;28;20132;-49
2023/12/25 01:40:56;;;;;;;26.77;25.38;;;;;;;;;;5038401;28;20029;-47
2023/12/25 01:43:21;;;;;;;27.90;26.40;;;;;;;;;;5026331;28;20037;-46
2023/12/25 01:45:46;;;;;;;26.63;25.15;;;;;;;;;;5029504;28;20041;-48
2023/12/25 01:48:13;;;;;;;28.30;26.80;;;;;;;;;;5031320;28;20033;-49
2023/12/25 01:50:39;;;;;;;27.42;26.00;;;;;;;;;;5027806;28;20055;-47
2023/12/25 01:53:06;;;;;;;26.83;25.42;;;;;;;;;;5031327;28;20095;-47
2023/12/25 01:55:32;;;;;;;28.95;27.35;;;;;;;;;;5027795;28;20037;-52
2023/12/25 01:57:57;;;;;;;29.33;27.80;;;;;;;;;;5026928;28;20031;-49
2023/12/25 02:00:23;;;;;;;28.33;26.83;;;;;;;;;;5026849;28;20025;-50
2023/12/25 02:02:48;;;;;;;28.30;26.80;;;;;;;;;;5031312;28;20029;-50
2023/12/25 02:05:14;;;;;;;29.08;27.58;;;;;;;;;;5029071;28;20101;-47
2023/12/25 02:07:42;;;;;;;28.77;27.08;;;;;;;;;;5025132;28;20045;-47
2023/12/25 02:10:08;;;;;;;29.17;27.67;;;;;;;;;;5034622;28;20067;-49
2023/12/25 02:12:34;;;;;;;27.30;25.90;;;;;;;;;;5028283;28;20033;-51
2023/12/25 02:15:00;;;;;;;28.60;27.10;;;;;;;;;;5028026;28;20060;-47
2023/12/25 02:17:26;;;;;;;29.45;27.75;;;;;;;;;;5029858;28;20477;-52
2023/12/25 02:19:53;;;;;;;29.35;27.80;;;;;;;;;;5026880;28;20049;-50
2023/12/25 02:22:19;;;;;;;28.17;26.67;;;;;;;;;;5032759;28;20030;-50
2023/12/25 02:24:51;;;;;;;29.38;27.77;;;;;;;;;;5030591;28;20067;-48
2023/12/25 02:27:17;;;;;;;30.38;28.77;;;;;;;;;;5033262;28;20340;-48
2023/12/25 02:29:42;;;;;;;28.85;27.25;;;;;;;;;;5027787;28;20106;-52
2023/12/25 02:32:08;;;;;;;28.60;27.10;;;;;;;;;;5032308;28;20386;-52
2023/12/25 02:34:33;;;;;;;29.17;27.58;;;;;;;;;;5034140;28;20088;-53
2023/12/25 02:36:58;;;;;;;30.20;28.60;;;;;;;;;;5030336;28;20451;-48
2023/12/25 02:39:24;;;;;;;30.15;28.55;;;;;;;;;;5030027;28;20028;-50
2023/12/25 02:41:49;;;;;;;30.92;29.33;;;;;;;;;;5032751;28;20056;-53
2023/12/25 02:44:16;;;;;;;27.60;26.08;;;;;;;;;;5025911;28;20036;-50
2023/12/25 02:46:41;;;;;;;27.42;25.98;;;;;;;;;;5028286;28;20124;-48
2023/12/25 02:49:07;;;;;;;28.55;27.05;;;;;;;;;;5026887;28;20170;-50
2023/12/25 02:51:33;;;;;;;33.22;31.50;;;;;;;;;;5028169;28;20025;-51
2023/12/25 02:53:58;;;;;;;28.70;27.20;;;;;;;;;;5026284;28;20033;-49
2023/12/25 02:56:24;;;;;;;29.17;27.67;;;;;;;;;;5029794;28;20043;-51
2023/12/25 02:58:49;;;;;;;29.65;28.05;;;;;;;;;;5030629;28;20060;-51
2023/12/25 03:01:14;;;;;;;32.17;30.40;;;;;;;;;;5030423;28;20056;-48
2023/12/25 03:03:40;;;;;;;29.70;28.10;;;;;;;;;;5030456;28;20068;-49
2023/12/25 03:06:05;;;;;;;29.42;27.83;;;;;;;;;;5027670;28;20029;-49
2023/12/25 03:08:31;;;;;;;31.48;29.88;;;;;;;;;;5030715;28;20103;-50
2023/12/25 03:10:56;;;;;;;30.70;29.10;;;;;;;;;;5033065;28;20029;-50
2023/12/25 03:13:21;;;;;;;31.15;29.55;;;;;;;;;;5028830;28;20443;-51
2023/12/25 03:15:47;;;;;;;30.13;28.52;;;;;;;;;;5030978;28;20036;-50
2023/12/25 03:18:12;;;;;;;31.13;29.17;;;;;;;;;;5028199;28;20037;-47
2023/12/25 03:20:37;;;;;;;31.38;29.77;;;;;;;;;;5026348;28;20112;-49
2023/12/25 03:23:03;;;;;;;31.20;29.60;;;;;;;;;;5029547;28;20060;-54
2023/12/25 03:25:28;;;;;;;30.65;29.05;;;;;;;;;;5026443;28;20033;-50
2023/12/25 03:27:54;;;;;;;31.27;29.58;;;;;;;;;;5032889;28;20469;-47
2023/12/25 03:30:19;;;;;;;32.65;30.95;;;;;;;;;;5033398;28;20056;-48
2023/12/25 03:32:44;;;;;;;31.52;29.83;;;;;;;;;;5030483;28;20534;-49
2023/12/25 03:35:10;;;;;;;32.28;30.58;;;;;;;;;;5029152;28;20100;-48
2023/12/25 03:37:35;;;;;;;32.15;30.45;;;;;;;;;;5025651;28;20111;-51
2023/12/25 03:40:00;;;;;;;33.83;32.03;;;;;;;;;;5028645;28;20036;-49
2023/12/25 03:42:26;;;;;;;31.88;30.05;;;;;;;;;;5027266;28;20052;-52
2023/12/25 03:44:51;;;;;;;31.40;29.80;;;;;;;;;;5026812;28;20045;-50
2023/12/25 03:47:18;;;;;;;32.35;30.65;;;;;;;;;;5028275;28;20041;-47
2023/12/25 03:49:43;;;;;;;31.50;29.88;;;;;;;;;;5027853;28;20041;-50
2023/12/25 03:52:08;;;;;;;32.53;30.83;;;;;;;;;;5028628;28;20099;-51
2023/12/25 03:54:34;;;;;;;32.63;30.92;;;;;;;;;;5030244;28;20029;-50
2023/12/25 03:56:59;;;;;;;30.60;29.00;;;;;;;;;;5030730;28;20084;-52
2023/12/25 03:59:24;;;;;;;32.78;31.08;;;;;;;;;;5024016;28;20029;-48
2023/12/25 04:01:50;;;;;;;32.22;30.52;;;;;;;;;;5026234;28;20056;-49
2023/12/25 04:04:15;;;;;;;32.35;30.65;;;;;;;;;;5028702;28;20033;-48
2023/12/25 04:06:40;;;;;;;32.17;30.48;;;;;;;;;;5027107;28;20065;-50
2023/12/25 04:09:06;;;;;;;31.83;30.17;;;;;;;;;;5028046;28;20026;-46
2023/12/25 04:11:32;;;;;;;32.35;30.65;;;;;;;;;;5025719;28;20025;-48
2023/12/25 04:13:58;;;;;;;33.08;31.38;;;;;;;;;;5026437;28;20508;-50
2023/12/25 04:16:26;;;;;;;33.72;32.00;;;;;;;;;;5028198;28;20148;-51
2023/12/25 04:18:52;;;;;;;32.92;31.23;;;;;;;;;;5030209;28;20029;-51
2023/12/25 04:21:22;;;;;;;31.23;29.63;;;;;;;;;;5026715;28;20467;-47
2023/12/25 04:23:48;;;;;;;32.25;30.55;;;;;;;;;;5028236;28;20067;-47
2023/12/25 04:26:13;;;;;;;30.92;29.33;;;;;;;;;;5029990;28;20077;-47
2023/12/25 04:28:38;;;;;;;31.75;30.13;;;;;;;;;;5024742;28;20331;-49
2023/12/25 04:31:04;;;;;;;32.60;30.90;;;;;;;;;;5029449;28;20065;-50
2023/12/25 04:33:29;;;;;;;33.20;31.50;;;;;;;;;;5037700;28;20442;-46
2023/12/25 04:35:54;;;;;;;31.95;30.30;;;;;;;;;;5028722;28;20590;-47
2023/12/25 04:38:20;;;;;;;31.17;29.58;;;;;;;;;;5031536;28;20148;-51
2023/12/25 04:40:45;;;;;;;30.58;28.98;;;;;;;;;;5032852;28;20049;-47
2023/12/25 04:43:11;;;;;;;30.23;28.63;;;;;;;;;;5029888;28;20117;-51
2023/12/25 04:45:36;;;;;;;31.45;29.85;;;;;;;;;;5032376;28;20091;-49
2023/12/25 04:48:02;;;;;;;32.78;31.08;;;;;;;;;;5033833;28;20041;-47
2023/12/25 04:50:27;;;;;;;31.83;30.20;;;;;;;;;;5034566;28;20133;-46
2023/12/25 04:52:53;;;;;;;31.95;30.30;;;;;;;;;;5032792;28;20029;-48
2023/12/25 04:55:18;;;;;;;32.88;30.92;;;;;;;;;;5031143;28;20047;-47
2023/12/25 04:57:43;;;;;;;31.15;29.55;;;;;;;;;;5034349;28;20099;-53
2023/12/25 05:00:09;;;;;;;32.00;30.33;;;;;;;;;;5036234;28;20505;-48
2023/12/25 05:02:34;;;;;;;31.63;30.02;;;;;;;;;;5034340;28;20033;-52
2023/12/25 05:05:00;;;;;;;33.47;31.77;;;;;;;;;;5033169;28;20034;-51
2023/12/25 05:07:25;;;;;;;34.13;32.35;;;;;;;;;;5028453;28;20037;-52
2023/12/25 05:09:50;;;;;;;31.30;29.70;;;;;;;;;;5028784;28;20029;-51
2023/12/25 05:12:16;;;;;;;35.17;33.38;;;;;;;;;;5030999;28;20048;-51
2023/12/25 05:14:41;;;;;;;34.08;32.30;;;;;;;;;;5030695;28;20037;-50
2023/12/25 05:17:06;;;;;;;32.85;31.15;;;;;;;;;;5030405;28;20049;-52
2023/12/25 05:19:32;;;;;;;36.28;34.42;;;;;;;;;;5034072;28;20423;-52
2023/12/25 05:21:58;;;;;;;34.78;32.97;;;;;;;;;;5032198;28;20073;-52
2023/12/25 05:24:23;;;;;;;34.10;32.35;;;;;;;;;;5027429;28;20033;-53
2023/12/25 05:26:48;;;;;;;36.10;34.25;;;;;;;;;;5029370;28;20044;-52
2023/12/25 05:29:14;;;;;;;36.58;34.67;;;;;;;;;;5032530;28;20040;-52
2023/12/25 05:31:39;;;;;;;37.45;35.55;;;;;;;;;;5033776;28;20037;-54
2023/12/25 05:34:04;;;;;;;37.20;35.30;;;;;;;;;;5032399;28;20171;-50
2023/12/25 05:36:30;;;;;;;36.30;34.42;;;;;;;;;;5026072;28;20105;-52
2023/12/25 05:38:55;;;;;;;37.33;35.42;;;;;;;;;;5029603;28;20187;-49
2023/12/25 05:41:21;;;;;;;38.53;36.53;;;;;;;;;;5030711;28;20034;-52
2023/12/25 05:43:46;;;;;;;36.83;34.92;;;;;;;;;;5029307;28;20037;-54
2023/12/25 05:46:12;;;;;;;38.63;36.63;;;;;;;;;;5034247;28;20033;-54
2023/12/25 05:48:37;;;;;;;38.13;36.20;;;;;;;;;;5031420;28;20029;-52
2023/12/25 05:51:03;;;;;;;39.67;37.67;;;;;;;;;;5031624;28;20030;-54
2023/12/25 05:53:28;;;;;;;39.42;37.33;;;;;;;;;;5034211;28;20030;-51
2023/12/25 05:55:54;;;;;;;37.75;35.85;;;;;;;;;;5032567;28;20522;-54
2023/12/25 05:58:19;;;;;;;40.33;38.28;;;;;;;;;;5032454;28;20059;-53
2023/12/25 06:00:44;;;;;;;38.33;36.33;;;;;;;;;;5026733;28;20044;-53
2023/12/25 06:03:10;;;;;;;37.03;35.13;;;;;;;;;;5029682;28;20164;-51
2023/12/25 06:05:35;;;;;;;39.08;37.08;;;;;;;;;;5026449;28;20523;-49
2023/12/25 06:08:00;;;;;;;39.08;37.08;;;;;;;;;;5032377;28;20048;-54
2023/12/25 06:10:26;;;;;;;37.45;35.55;;;;;;;;;;5028700;28;20038;-53
2023/12/25 06:12:51;;;;;;;38.63;36.65;;;;;;;;;;5031337;28;20028;-53
2023/12/25 06:15:16;;;;;;;38.97;36.97;;;;;;;;;;5028610;28;20098;-51
2023/12/25 06:17:41;;;;;;;41.20;39.10;;;;;;;;;;5031081;28;20037;-51
2023/12/25 06:20:08;;;;;;;39.70;37.70;;;;;;;;;;5028505;28;20455;-53
2023/12/25 06:22:33;;;;;;;40.63;38.53;;;;;;;;;;5035300;28;20033;-54
2023/12/25 06:24:58;;;;;;;41.03;38.92;;;;;;;;;;5028681;28;20177;-53
2023/12/25 06:27:24;;;;;;;40.88;38.78;;;;;;;;;;5030973;28;20042;-52
2023/12/25 06:29:49;;;;;;;43.67;41.47;;;;;;;;;;5028799;28;20041;-52
2023/12/25 06:32:15;;;;;;;42.10;40.00;;;;;;;;;;5028510;28;20048;-54
2023/12/25 06:34:41;;;;;;;42.15;40.00;;;;;;;;;;5032465;28;20037;-55
2023/12/25 06:37:06;;;;;;;43.20;41.00;;;;;;;;;;5032538;28;20132;-52
2023/12/25 06:39:31;;;;;;;44.53;42.25;;;;;;;;;;5031228;28;20033;-49
2023/12/25 06:41:57;;;;;;;42.35;40.20;;;;;;;;;;5027915;28;20024;-46
2023/12/25 06:44:22;;;;;;;44.50;42.25;;;;;;;;;;5033382;28;20079;-48
2023/12/25 06:46:48;;;;;;;46.50;44.15;;;;;;;;;;5029980;28;20167;-50
2023/12/25 06:49:13;;;;;;;51.67;49.08;;;;;;;;;;5030734;28;20095;-49
2023/12/25 06:51:39;;;;;;;50.08;47.53;;;;;;;;;;5028082;28;20044;-49
2023/12/25 06:54:04;;;;;;;51.55;48.92;;;;;;;;;;5029772;28;20033;-49
2023/12/25 06:56:30;;;;;;;51.22;48.60;;;;;;;;;;5028239;28;20116;-50
2023/12/25 06:58:55;;;;;;;51.40;48.83;;;;;;;;;;5024750;28;20117;-51
2023/12/25 07:01:22;;;;;;;52.08;49.42;;;;;;;;;;5030734;28;20048;-52
2023/12/25 07:03:47;;;;;;;52.58;49.92;;;;;;;;;;5029728;28;20378;-50
2023/12/25 07:06:13;;;;;;;50.25;47.72;;;;;;;;;;5030537;28;20033;-52
2023/12/25 07:08:38;;;;;;;55.92;53.08;;;;;;;;;;5028914;28;21009;-49
2023/12/25 07:11:04;;;;;;;52.30;49.67;;;;;;;;;;5028610;28;20432;-49
2023/12/25 07:13:33;;;;;;;51.15;48.58;;;;;;;;;;5028182;28;20307;-47
2023/12/25 07:16:00;;;;;;;50.60;48.05;;;;;;;;;;5029846;28;20573;-50
2023/12/25 07:18:26;;;;;;;48.65;46.17;;;;;;;;;;5032351;28;20064;-46
2023/12/25 07:20:51;;;;;;;52.97;50.33;;;;;;;;;;5024248;28;20025;-45
2023/12/25 07:23:18;;;;;;;49.63;47.13;;;;;;;;;;5028706;28;20075;-47
2023/12/25 07:25:44;;;;;;;46.55;44.20;;;;;;;;;;5029196;28;20335;-51
2023/12/25 07:28:10;;;;;;;45.40;43.10;;;;;;;;;;5030044;28;20092;-49
2023/12/25 07:30:35;;;;;;;48.40;45.85;;;;;;;;;;5027626;28;20521;-49
2023/12/25 07:33:01;;;;;;;45.92;43.60;;;;;;;;;;5031078;28;20477;-50
2023/12/25 07:35:26;;;;;;;46.60;44.25;;;;;;;;;;5027986;28;20120;-48
2023/12/25 07:37:52;;;;;;;43.10;40.92;;;;;;;;;;5027427;28;20045;-49
2023/12/25 07:40:18;;;;;;;42.45;40.30;;;;;;;;;;5029844;28;20037;-48
2023/12/25 07:42:44;;;;;;;45.45;43.15;;;;;;;;;;5029310;28;20095;-52
2023/12/25 07:45:12;;;;;;;45.10;42.83;;;;;;;;;;5029644;28;20037;-48
2023/12/25 07:47:37;;;;;;;45.80;43.47;;;;;;;;;;5029337;28;20525;-50
2023/12/25 07:50:04;;;;;;;45.28;42.97;;;;;;;;;;5029033;28;20036;-52
2023/12/25 07:52:30;;;;;;;43.47;41.28;;;;;;;;;;5030330;28;20375;-52
2023/12/25 07:54:56;;;;;;;43.28;41.08;;;;;;;;;;5028757;28;20421;-48
2023/12/25 07:57:22;;;;;;;43.00;40.85;;;;;;;;;;5030055;28;20057;-47
2023/12/25 07:59:48;;;;;;;43.30;41.10;;;;;;;;;;5028232;28;20032;-49
2023/12/25 08:02:14;;;;;;;42.08;39.92;;;;;;;;;;5028630;28;20041;-47
2023/12/25 08:04:40;;;;;;;46.00;43.65;;;;;;;;;;5030901;28;20060;-49
2023/12/25 08:07:05;;;;;;;40.88;38.80;;;;;;;;;;5035979;28;20060;-48
2023/12/25 08:09:31;;;;;;;42.70;40.53;;;;;;;;;;5036919;28;20033;-50
2023/12/25 08:11:56;;;;;;;41.83;39.70;;;;;;;;;;5033466;28;20041;-49
2023/12/25 08:14:22;;;;;;;42.65;40.47;;;;;;;;;;5034983;28;20136;-55
2023/12/25 08:16:47;;;;;;;43.65;41.45;;;;;;;;;;5033101;28;20067;-48
2023/12/25 08:19:13;;;;;;;42.60;40.42;;;;;;;;;;5030720;28;20048;-51
2023/12/25 08:21:40;;;;;;;41.67;39.58;;;;;;;;;;5033507;28;20429;-50
2023/12/25 08:24:05;;;;;;;41.67;39.55;;;;;;;;;;5030778;28;20041;-50
2023/12/25 08:26:31;;;;;;;40.92;38.85;;;;;;;;;;5030032;28;20051;-50
2023/12/25 08:28:57;;;;;;;41.17;39.08;;;;;;;;;;5032951;28;20113;-52
2023/12/25 08:31:23;;;;;;;41.05;38.97;;;;;;;;;;5033045;28;20025;-49
2023/12/25 08:33:48;;;;;;;40.85;38.78;;;;;;;;;;5014218;28;20033;-47
2023/12/25 08:36:13;;;;;;;43.67;41.47;;;;;;;;;;5035254;28;20041;-49
2023/12/25 08:38:39;;;;;;;39.50;37.47;;;;;;;;;;5035651;28;20036;-48
2023/12/25 08:41:05;;;;;;;41.58;39.45;;;;;;;;;;5032670;28;20045;-50
2023/12/25 08:43:30;;;;;;;40.58;38.50;;;;;;;;;;5032134;28;20471;-49
2023/12/25 08:45:56;;;;;;;38.70;36.72;;;;;;;;;;5014554;28;20128;-53
2023/12/25 08:48:21;;;;;;;38.80;36.80;;;;;;;;;;5031007;28;20076;-47
2023/12/25 08:50:47;;;;;;;40.72;38.53;;;;;;;;;;5033284;28;20025;-52
2023/12/25 08:53:12;;;;;;;42.83;40.65;;;;;;;;;;5032600;28;20037;-49
2023/12/25 08:55:38;;;;;;;41.03;38.95;;;;;;;;;;5029384;28;20136;-51
2023/12/25 08:58:03;;;;;;;40.05;38.00;;;;;;;;;;5034333;28;20057;-51
2023/12/25 09:00:29;;;;;;;39.53;37.53;;;;;;;;;;5034215;28;20425;-53
2023/12/25 09:02:55;;;;;;;39.88;37.85;;;;;;;;;;5033412;28;20030;-48
2023/12/25 09:05:21;;;;;;;40.40;38.35;;;;;;;;;;5031418;28;20104;-53
2023/12/25 09:07:46;;;;;;;39.97;37.95;;;;;;;;;;5034033;28;20038;-52
2023/12/25 09:10:11;;;;;;;41.53;39.42;;;;;;;;;;5033018;28;20040;-54
2023/12/25 09:12:38;;;;;;;43.22;41.03;;;;;;;;;;5029340;28;20598;-54
2023/12/25 09:15:04;;;;;;;40.50;38.42;;;;;;;;;;5034800;28;20041;-49
2023/12/25 09:17:30;;;;;;;42.15;40.00;;;;;;;;;;5032072;28;20037;-50
2023/12/25 09:19:56;;;;;;;43.03;40.85;;;;;;;;;;5031064;28;20029;-54
2023/12/25 09:22:23;;;;;;;40.17;38.13;;;;;;;;;;5032896;28;20037;-57
2023/12/25 09:24:50;;;;;;;40.13;38.10;;;;;;;;;;5031765;28;20112;-55
2023/12/25 09:27:16;;;;;;;40.70;38.60;;;;;;;;;;5031954;28;20510;-54
2023/12/25 09:29:41;;;;;;;42.10;39.95;;;;;;;;;;5032211;28;20045;-56
2023/12/25 09:32:07;;;;;;;42.63;40.47;;;;;;;;;;5031231;28;20076;-54
2023/12/25 09:34:32;;;;;;;41.58;39.47;;;;;;;;;;5034584;28;20115;-52
2023/12/25 09:36:58;;;;;;;44.25;42.03;;;;;;;;;;5033910;28;20034;-53
2023/12/25 09:39:24;;;;;;;41.85;39.72;;;;;;;;;;5033463;28;20037;-54
2023/12/25 09:41:50;;;;;;;45.67;43.38;;;;;;;;;;5032663;28;20270;-53
2023/12/25 09:44:15;;;;;;;44.25;42.03;;;;;;;;;;5029773;28;20025;-56
2023/12/25 09:46:41;;;;;;;45.35;43.08;;;;;;;;;;5031782;28;20104;-53
2023/12/25 09:49:06;;;;;;;45.75;43.45;;;;;;;;;;5031970;28;20068;-51
2023/12/25 09:51:33;;;;;;;47.20;44.35;;;;;;;;;;5032730;28;20040;-56
2023/12/25 09:53:59;;;;;;;45.13;42.85;;;;;;;;;;5034211;28;20090;-54
2023/12/25 09:56:26;;;;;;;47.38;44.97;;;;;;;;;;5031041;28;20029;-54
2023/12/25 09:58:53;;;;;;;46.95;44.55;;;;;;;;;;5030695;28;20103;-54
2023/12/25 10:01:20;;;;;;;47.63;45.22;;;;;;;;;;5034472;28;20037;-54
2023/12/25 10:03:46;;;;;;;46.75;44.35;;;;;;;;;;5033990;28;20051;-53
2023/12/25 10:06:12;;;;;;;45.90;43.58;;;;;;;;;;5029985;28;20382;-54
2023/12/25 10:08:39;;;;;;;47.63;45.22;;;;;;;;;;5026390;28;20029;-52
2023/12/25 10:11:08;;;;;;;45.22;42.92;;;;;;;;;;5031477;28;20029;-51
2023/12/25 10:13:34;;;;;;;48.50;46.03;;;;;;;;;;5030290;28;20420;-53
2023/12/25 10:16:02;;;;;;;45.60;43.30;;;;;;;;;;5032003;28;20069;-52
2023/12/25 10:18:27;;;;;;;43.40;41.20;;;;;;;;;;5029229;28;20046;-54
2023/12/25 10:20:57;;;;;;;47.45;45.05;;;;;;;;;;5032787;28;20043;-50
2023/12/25 10:23:32;;;;;;;47.65;45.25;;;;;;;;;;5031686;28;20047;-51
2023/12/25 10:25:59;;;;;;;43.38;41.17;;;;;;;;;;5031036;28;20040;-51
2023/12/25 10:28:26;;;;;;;45.60;43.30;;;;;;;;;;5027499;28;20033;-51
2023/12/25 10:31:05;;;;;;;44.08;41.85;;;;;;;;;;5028536;28;20033;-51
2023/12/25 10:33:32;;;;;;;42.13;40.00;;;;;;;;;;5027683;28;20747;-51
2023/12/25 10:36:49;;;;;;;42.08;39.95;;;;;;;;;;5030478;28;20025;-53
2023/12/25 10:39:30;;;;;;;41.45;39.30;;;;;;;;;;5032107;28;20040;-52
2023/12/25 10:41:56;;;;;;;40.10;38.08;;;;;;;;;;5029014;28;20048;-54
2023/12/25 10:44:23;;;;;;;39.42;37.42;;;;;;;;;;5029113;28;20037;-53
2023/12/25 10:46:49;;;;;;;39.78;37.78;;;;;;;;;;5028154;28;20150;-52
2023/12/25 10:49:15;;;;;;;39.28;37.28;;;;;;;;;;5029839;28;20084;-50
2023/12/25 10:51:45;;;;;;;40.03;38.03;;;;;;;;;;5031264;28;20532;-52
2023/12/25 10:54:12;;;;;;;38.97;36.97;;;;;;;;;;5030013;28;20032;-52
2023/12/25 10:56:44;;;;;;;42.50;40.33;;;;;;;;;;5030396;28;20049;-54
2023/12/25 10:59:30;;;;;;;40.50;38.42;;;;;;;;;;5030790;28;20467;-52
2023/12/25 11:02:00;;;;;;;38.13;36.17;;;;;;;;;;5033819;28;20124;-51
2023/12/25 11:04:25;;;;;;;38.17;35.92;;;;;;;;;;5031976;28;20083;-52
2023/12/25 11:06:51;;;;;;;39.05;37.05;;;;;;;;;;5032312;28;20076;-50
2023/12/25 11:09:17;;;;;;;39.38;37.38;;;;;;;;;;5029118;28;20036;-50
2023/12/25 11:11:44;;;;;;;38.97;36.97;;;;;;;;;;5029133;28;20029;-53
2023/12/25 11:14:10;;;;;;;36.42;34.53;;;;;;;;;;5031372;28;20106;-53
2023/12/25 11:16:36;;;;;;;38.78;36.78;;;;;;;;;;5029151;28;20071;-51
2023/12/25 11:19:02;;;;;;;36.70;34.80;;;;;;;;;;5029641;28;20033;-52
2023/12/25 11:21:29;;;;;;;36.72;34.83;;;;;;;;;;5027273;28;20099;-50
2023/12/25 11:23:55;;;;;;;37.05;35.15;;;;;;;;;;5030542;28;20033;-47
2023/12/25 11:26:23;;;;;;;36.35;34.45;;;;;;;;;;5027155;28;20038;-48
2023/12/25 11:29:03;;;;;;;38.45;36.45;;;;;;;;;;5030815;28;20084;-49
2023/12/25 11:31:39;;;;;;;37.20;35.30;;;;;;;;;;5030144;28;20025;-51
2023/12/25 11:34:26;;;;;;;34.72;32.92;;;;;;;;;;5027462;28;20030;-47
2023/12/25 11:36:56;;;;;;;36.28;34.42;;;;;;;;;;5033376;28;20062;-49
2023/12/25 11:39:26;;;;;;;37.53;35.63;;;;;;;;;;5030042;28;20021;-53
2023/12/25 11:41:51;;;;;;;37.75;35.85;;;;;;;;;;5033259;28;20068;-50
2023/12/25 11:44:30;;;;;;;39.33;37.33;;;;;;;;;;5031501;28;20474;-52
2023/12/25 11:47:04;;;;;;;36.03;34.20;;;;;;;;;;5035254;28;20048;-51
2023/12/25 11:49:34;;;;;;;35.22;33.42;;;;;;;;;;5031490;28;20032;-53
2023/12/25 11:51:59;;;;;;;32.88;31.17;;;;;;;;;;5031959;28;20048;-54
2023/12/25 11:54:32;;;;;;;33.58;31.88;;;;;;;;;;5035713;28;20038;-50
2023/12/25 11:57:00;;;;;;;35.90;34.08;;;;;;;;;;5034174;28;20037;-50
2023/12/25 11:59:25;;;;;;;35.47;33.67;;;;;;;;;;5036476;28;20051;-52
2023/12/25 12:01:51;;;;;;;35.67;33.88;;;;;;;;;;5031626;28;20036;-53
2023/12/25 12:04:17;;;;;;;38.10;35.60;;;;;;;;;;5030359;28;20045;-56
2023/12/25 12:06:42;;;;;;;35.70;33.80;;;;;;;;;;5029789;28;20040;-54
2023/12/25 12:09:08;;;;;;;36.10;34.25;;;;;;;;;;5034612;28;20366;-52
2023/12/25 12:11:33;;;;;;;36.03;34.22;;;;;;;;;;5030848;28;20383;-48
2023/12/25 12:13:59;;;;;;;37.17;35.28;;;;;;;;;;5033689;28;20061;-48
2023/12/25 12:16:27;;;;;;;36.95;35.05;;;;;;;;;;5033106;28;20037;-50
2023/12/25 12:18:52;;;;;;;34.67;32.88;;;;;;;;;;5036273;28;20386;-50
2023/12/25 12:21:18;;;;;;;36.78;34.88;;;;;;;;;;5032123;28;20037;-53
2023/12/25 12:23:43;;;;;;;35.92;34.13;;;;;;;;;;5030458;28;20466;-54
2023/12/25 12:26:15;;;;;;;35.58;33.78;;;;;;;;;;5032801;28;20287;-50
2023/12/25 12:28:42;;;;;;;33.58;31.88;;;;;;;;;;5025951;28;20030;-48
2023/12/25 12:31:08;;;;;;;35.85;34.05;;;;;;;;;;5032007;28;20030;-52
2023/12/25 12:33:33;;;;;;;33.55;31.85;;;;;;;;;;5029916;28;20475;-48
2023/12/25 12:36:02;;;;;;;35.22;33.42;;;;;;;;;;5032234;28;20063;-49
2023/12/25 12:38:27;;;;;;;33.20;31.50;;;;;;;;;;5035100;28;20524;-50
2023/12/25 12:40:53;;;;;;;32.60;30.90;;;;;;;;;;5030032;28;20029;-50
2023/12/25 12:43:19;;;;;;;33.00;31.30;;;;;;;;;;5034709;28;20088;-48
2023/12/25 12:45:46;;;;;;;30.67;29.08;;;;;;;;;;5032632;28;20039;-49
2023/12/25 12:48:11;;;;;;;29.65;28.13;;;;;;;;;;5032669;28;20499;-53
2023/12/25 12:50:37;;;;;;;29.05;27.55;;;;;;;;;;5035660;28;20129;-50
2023/12/25 12:53:02;;;;;;;31.02;29.42;;;;;;;;;;5033464;28;20055;-52
2023/12/25 12:55:28;;;;;;;35.38;33.35;;;;;;;;;;5036193;28;21097;-53
2023/12/25 12:57:53;;;;;;;31.58;29.88;;;;;;;;;;5034363;28;20084;-52
2023/12/25 13:00:18;;;;;;;30.33;28.73;;;;;;;;;;5037070;28;20459;-50
2023/12/25 13:02:44;;;;;;;31.15;29.55;;;;;;;;;;5032669;28;20036;-54
2023/12/25 13:05:09;;;;;;;30.90;29.30;;;;;;;;;;5031332;28;20041;-53
2023/12/25 13:07:35;;;;;;;32.03;30.38;;;;;;;;;;5035853;28;20029;-48
2023/12/25 13:10:00;;;;;;;29.85;28.27;;;;;;;;;;5033726;28;20041;-52
2023/12/25 13:12:26;;;;;;;30.42;28.83;;;;;;;;;;5030423;28;20489;-53
2023/12/25 13:14:51;;;;;;;29.95;28.35;;;;;;;;;;5031774;28;20082;-53
2023/12/25 13:17:17;;;;;;;29.20;27.70;;;;;;;;;;5033094;28;20340;-51
2023/12/25 13:19:43;;;;;;;29.40;27.90;;;;;;;;;;5031839;28;20044;-51
2023/12/25 13:22:10;;;;;;;30.88;29.27;;;;;;;;;;5032626;28;20033;-52
2023/12/25 13:24:36;;;;;;;32.92;31.23;;;;;;;;;;5015117;28;20492;-56
2023/12/25 13:27:05;;;;;;;35.20;33.40;;;;;;;;;;5031556;28;20029;-51
2023/12/25 13:29:30;;;;;;;33.33;31.63;;;;;;;;;;5031047;28;20080;-52
2023/12/25 13:31:56;;;;;;;31.85;30.15;;;;;;;;;;5032274;28;20061;-52
2023/12/25 13:34:21;;;;;;;31.23;29.63;;;;;;;;;;5033191;28;20033;-50
2023/12/25 13:36:46;;;;;;;32.03;30.35;;;;;;;;;;5032988;28;20060;-51
2023/12/25 13:39:12;;;;;;;31.20;29.60;;;;;;;;;;5033497;28;20056;-47
2023/12/25 13:41:37;;;;;;;34.03;32.25;;;;;;;;;;5031997;28;20160;-48
2023/12/25 13:44:03;;;;;;;32.25;30.55;;;;;;;;;;5033005;28;20048;-53
2023/12/25 13:46:28;;;;;;;31.70;30.08;;;;;;;;;;5032611;28;20087;-52
2023/12/25 13:48:53;;;;;;;30.70;29.10;;;;;;;;;;5036161;28;20072;-50
2023/12/25 13:51:19;;;;;;;30.23;28.63;;;;;;;;;;5032232;28;20059;-50
2023/12/25 13:53:44;;;;;;;31.10;29.50;;;;;;;;;;5019513;28;20029;-51
2023/12/25 13:56:10;;;;;;;32.88;31.17;;;;;;;;;;5031810;28;20075;-49
2023/12/25 13:58:36;;;;;;;30.83;29.23;;;;;;;;;;5028718;28;20037;-49
2023/12/25 14:01:01;;;;;;;32.15;30.45;;;;;;;;;;5033556;28;20037;-50
2023/12/25 14:03:27;;;;;;;31.08;29.48;;;;;;;;;;5034632;28;20124;-49
2023/12/25 14:05:52;;;;;;;31.90;30.27;;;;;;;;;;5031001;28;20102;-48
2023/12/25 14:08:17;;;;;;;30.98;29.38;;;;;;;;;;5031113;28;20032;-50
2023/12/25 14:10:43;;;;;;;33.13;31.42;;;;;;;;;;5027464;28;20125;-50